Time;durP1;ratioP1;P1;durP2;ratioP2;P2;SDS_P1;SDS_P2;PMS_P1;PMS_P2;Temp;Humidity;BMP_temperature;BMP_pressure;BME280_temperature;BME280_humidity;BME280_pressure;Samples;Min_cycle;Max_cycle;Signal;HPM_P1;HPM_P2
2022/05/11 00:01:35;;;;;;;19.90;14.02;;;;;;;;;;5112578;27;20043;-67
2022/05/11 00:04:02;;;;;;;22.95;14.75;;;;;;;;;;5106660;28;20512;-68
2022/05/11 00:06:28;;;;;;;20.75;14.13;;;;;;;;;;5109088;28;20370;-69
2022/05/11 00:08:56;;;;;;;17.95;13.38;;;;;;;;;;5109429;28;20119;-68
2022/05/11 00:11:22;;;;;;;20.67;13.85;;;;;;;;;;5113660;27;20043;-68
2022/05/11 00:13:49;;;;;;;22.00;14.23;;;;;;;;;;5111684;27;20093;-67
2022/05/11 00:16:16;;;;;;;21.13;13.77;;;;;;;;;;5106311;27;20051;-68
2022/05/11 00:18:42;;;;;;;21.25;13.80;;;;;;;;;;5107285;28;20047;-67
2022/05/11 00:21:08;;;;;;;19.30;13.23;;;;;;;;;;5096047;28;20046;-68
2022/05/11 00:23:35;;;;;;;18.98;11.40;;;;;;;;;;5099208;28;20473;-68
2022/05/11 00:26:01;;;;;;;19.13;12.48;;;;;;;;;;5105250;28;20040;-68
2022/05/11 00:28:27;;;;;;;25.73;13.18;;;;;;;;;;5110051;27;20032;-68
2022/05/11 00:30:54;;;;;;;21.17;13.20;;;;;;;;;;5109924;28;20046;-68
2022/05/11 00:33:20;;;;;;;19.88;12.40;;;;;;;;;;5093259;28;20168;-69
2022/05/11 00:35:47;;;;;;;23.50;13.25;;;;;;;;;;5108217;28;20096;-68
2022/05/11 00:38:13;;;;;;;17.48;11.98;;;;;;;;;;5110067;28;20119;-68
2022/05/11 00:40:47;;;;;;;16.67;10.88;;;;;;;;;;5110868;28;20042;-68
2022/05/11 00:43:14;;;;;;;21.02;12.60;;;;;;;;;;5088781;28;20062;-68
2022/05/11 00:45:50;;;;;;;22.20;12.32;;;;;;;;;;5108457;28;20124;-68
2022/05/11 00:51:09;;;;;;;18.30;11.20;;;;;;;;;;5101106;28;20420;-68
2022/05/11 00:53:36;;;;;;;22.63;13.10;;;;;;;;;;5105042;28;20071;-68
2022/05/11 00:56:02;;;;;;;17.70;12.32;;;;;;;;;;5107471;28;20127;-68
2022/05/11 00:58:39;;;;;;;19.63;12.18;;;;;;;;;;5112105;28;20039;-68
2022/05/11 01:01:06;;;;;;;17.30;12.40;;;;;;;;;;5099234;28;20066;-69
2022/05/11 01:03:37;;;;;;;20.73;11.63;;;;;;;;;;5106868;28;20632;-68
2022/05/11 01:06:03;;;;;;;18.65;11.60;;;;;;;;;;5106329;28;20564;-68
2022/05/11 01:08:30;;;;;;;22.40;12.85;;;;;;;;;;5107819;28;20102;-68
2022/05/11 01:10:56;;;;;;;19.15;12.20;;;;;;;;;;5110306;28;20048;-68
2022/05/11 01:13:23;;;;;;;19.75;12.48;;;;;;;;;;5110699;28;20046;-68
2022/05/11 01:15:50;;;;;;;21.10;12.65;;;;;;;;;;5103593;28;20524;-68
2022/05/11 01:18:17;;;;;;;16.25;10.82;;;;;;;;;;5106169;28;20175;-68
2022/05/11 01:20:44;;;;;;;18.55;12.02;;;;;;;;;;5109150;28;20502;-68
2022/05/11 01:23:11;;;;;;;21.77;11.63;;;;;;;;;;5111843;28;20146;-69
2022/05/11 01:25:37;;;;;;;20.92;11.75;;;;;;;;;;5110313;28;20047;-68
2022/05/11 01:28:05;;;;;;;18.95;11.98;;;;;;;;;;5110534;28;20125;-68
2022/05/11 01:30:31;;;;;;;16.88;11.65;;;;;;;;;;5111740;28;20043;-68
2022/05/11 01:32:58;;;;;;;17.90;10.82;;;;;;;;;;5110471;28;20045;-68
2022/05/11 01:35:30;;;;;;;21.67;10.95;;;;;;;;;;5067679;28;20048;-68
2022/05/11 01:38:07;;;;;;;17.73;10.80;;;;;;;;;;5105944;28;20043;-68
2022/05/11 01:40:34;;;;;;;19.50;10.93;;;;;;;;;;5102937;27;20161;-69
2022/05/11 01:43:00;;;;;;;19.65;11.10;;;;;;;;;;5112192;27;20047;-68
2022/05/11 01:45:26;;;;;;;18.88;11.70;;;;;;;;;;5114639;27;20051;-68
2022/05/11 01:47:56;;;;;;;20.38;11.73;;;;;;;;;;5116415;27;20043;-68
2022/05/11 01:50:22;;;;;;;20.52;11.23;;;;;;;;;;5101157;27;20036;-68
2022/05/11 01:52:49;;;;;;;17.52;12.25;;;;;;;;;;5109551;28;20127;-67
2022/05/11 01:55:15;;;;;;;16.73;9.90;;;;;;;;;;5111804;28;20040;-68
2022/05/11 01:57:41;;;;;;;19.00;11.55;;;;;;;;;;5110748;28;20059;-68
2022/05/11 02:00:09;;;;;;;33.92;13.45;;;;;;;;;;5107460;28;20375;-68
2022/05/11 02:02:37;;;;;;;17.10;10.60;;;;;;;;;;5112392;27;20119;-68
2022/05/11 02:07:49;;;;;;;17.00;10.82;;;;;;;;;;5106389;27;20105;-68
2022/05/11 02:10:21;;;;;;;19.95;12.18;;;;;;;;;;5114880;27;20051;-68
2022/05/11 02:12:47;;;;;;;21.38;11.85;;;;;;;;;;5103569;27;20043;-68
2022/05/11 02:15:14;;;;;;;18.30;11.30;;;;;;;;;;5113586;27;20039;-68
2022/05/11 02:17:41;;;;;;;20.42;10.63;;;;;;;;;;5113299;27;20055;-68
2022/05/11 02:20:08;;;;;;;18.92;10.82;;;;;;;;;;5111197;27;20086;-68
2022/05/11 02:22:34;;;;;;;18.60;11.00;;;;;;;;;;5105586;27;20044;-68
2022/05/11 02:25:00;;;;;;;17.25;10.43;;;;;;;;;;5115558;27;20038;-68
2022/05/11 02:27:26;;;;;;;15.30;10.27;;;;;;;;;;5113353;27;20032;-67
2022/05/11 02:29:52;;;;;;;16.58;11.20;;;;;;;;;;5110878;28;20068;-68
2022/05/11 02:32:19;;;;;;;14.73;10.43;;;;;;;;;;5109338;28;20494;-68
2022/05/11 02:37:40;;;;;;;15.75;9.32;;;;;;;;;;5097214;27;20043;-68
2022/05/11 02:40:07;;;;;;;13.57;9.15;;;;;;;;;;5110167;27;20040;-68
2022/05/11 02:42:33;;;;;;;17.52;10.35;;;;;;;;;;5101319;27;20051;-68
2022/05/11 02:44:59;;;;;;;12.68;9.05;;;;;;;;;;5115290;27;20130;-67
2022/05/11 02:47:25;;;;;;;13.73;8.32;;;;;;;;;;5113826;27;20039;-68
2022/05/11 02:49:51;;;;;;;11.77;8.73;;;;;;;;;;5103856;27;20040;-68
2022/05/11 02:52:18;;;;;;;15.70;8.65;;;;;;;;;;5114042;27;20047;-68
2022/05/11 02:54:46;;;;;;;17.00;8.27;;;;;;;;;;5110036;27;20397;-68
2022/05/11 02:57:16;;;;;;;17.05;9.85;;;;;;;;;;5110144;28;20389;-68
2022/05/11 02:59:43;;;;;;;16.15;8.55;;;;;;;;;;5112093;27;20374;-68
2022/05/11 03:02:09;;;;;;;14.40;8.40;;;;;;;;;;5110699;28;20036;-71
2022/05/11 03:04:35;;;;;;;19.90;9.02;;;;;;;;;;5106671;27;20031;-68
2022/05/11 03:07:01;;;;;;;12.68;8.60;;;;;;;;;;5112401;27;20118;-68
2022/05/11 03:09:28;;;;;;;14.90;9.10;;;;;;;;;;5108828;27;20093;-68
2022/05/11 03:11:54;;;;;;;15.23;8.82;;;;;;;;;;5113010;27;20044;-68
2022/05/11 03:14:20;;;;;;;16.63;10.20;;;;;;;;;;5111725;27;20039;-68
2022/05/11 03:16:46;;;;;;;12.70;9.02;;;;;;;;;;5102044;27;20409;-68
2022/05/11 03:19:12;;;;;;;13.90;9.52;;;;;;;;;;5111273;27;20499;-68
2022/05/11 03:21:38;;;;;;;14.98;8.48;;;;;;;;;;5108586;28;20135;-68
2022/05/11 03:24:05;;;;;;;16.73;9.68;;;;;;;;;;5088243;28;20036;-68
2022/05/11 03:26:31;;;;;;;15.15;9.35;;;;;;;;;;5109222;28;20099;-68
2022/05/11 03:28:57;;;;;;;15.65;9.50;;;;;;;;;;5091573;28;20050;-68
2022/05/11 03:31:24;;;;;;;15.57;9.30;;;;;;;;;;5108601;28;20043;-69
2022/05/11 03:36:35;;;;;;;13.57;8.32;;;;;;;;;;5101843;27;20048;-68
2022/05/11 03:39:01;;;;;;;16.65;9.40;;;;;;;;;;5111181;27;20104;-69
2022/05/11 03:41:27;;;;;;;16.17;10.02;;;;;;;;;;5112827;27;20040;-68
2022/05/11 03:43:53;;;;;;;19.25;9.20;;;;;;;;;;5112269;27;20482;-68
2022/05/11 03:46:19;;;;;;;13.25;8.82;;;;;;;;;;5110093;27;20044;-69
2022/05/11 03:48:48;;;;;;;14.93;9.05;;;;;;;;;;5103940;27;20031;-68
2022/05/11 03:51:15;;;;;;;16.02;8.68;;;;;;;;;;5091272;28;20512;-68
2022/05/11 03:53:41;;;;;;;20.65;9.93;;;;;;;;;;5088781;28;20508;-69
2022/05/11 03:56:07;;;;;;;15.50;7.85;;;;;;;;;;5069806;28;20120;-68
2022/05/11 03:58:33;;;;;;;16.13;8.95;;;;;;;;;;5104151;27;20036;-69
2022/05/11 04:01:00;;;;;;;12.88;8.13;;;;;;;;;;5110921;27;20658;-68
2022/05/11 04:03:26;;;;;;;17.23;8.38;;;;;;;;;;5108534;28;20040;-69
2022/05/11 04:05:53;;;;;;;15.00;8.05;;;;;;;;;;5107261;28;20039;-69
2022/05/11 04:08:19;;;;;;;18.42;7.25;;;;;;;;;;5110261;27;20031;-68
2022/05/11 04:10:45;;;;;;;13.63;7.57;;;;;;;;;;5109375;28;20039;-68
2022/05/11 04:13:11;;;;;;;11.43;7.00;;;;;;;;;;5109813;27;20543;-68
2022/05/11 04:15:38;;;;;;;14.20;8.52;;;;;;;;;;5108743;28;20032;-68
2022/05/11 04:18:06;;;;;;;11.77;8.50;;;;;;;;;;5075082;28;20397;-68
2022/05/11 04:20:32;;;;;;;12.30;7.25;;;;;;;;;;5105688;28;20209;-68
2022/05/11 04:22:58;;;;;;;14.40;8.13;;;;;;;;;;5107577;28;20104;-68
2022/05/11 04:25:25;;;;;;;11.65;6.65;;;;;;;;;;5092203;28;20035;-69
2022/05/11 04:27:51;;;;;;;12.40;7.57;;;;;;;;;;5100992;27;20111;-68
2022/05/11 04:30:18;;;;;;;13.05;6.85;;;;;;;;;;5108495;28;20044;-69
2022/05/11 04:32:44;;;;;;;13.57;6.78;;;;;;;;;;5107494;28;20048;-68
2022/05/11 04:35:10;;;;;;;13.30;6.80;;;;;;;;;;5104191;27;20400;-67
2022/05/11 04:37:37;;;;;;;14.73;8.32;;;;;;;;;;5107450;28;20394;-67
2022/05/11 04:40:03;;;;;;;17.05;7.15;;;;;;;;;;5103521;28;20113;-67
2022/05/11 04:42:30;;;;;;;14.13;6.32;;;;;;;;;;5102151;28;20085;-68
2022/05/11 04:44:56;;;;;;;13.98;6.93;;;;;;;;;;5091238;28;20055;-68
2022/05/11 04:47:22;;;;;;;12.48;6.47;;;;;;;;;;5097039;28;20052;-68
2022/05/11 04:49:52;;;;;;;19.85;7.25;;;;;;;;;;5088311;28;20043;-68
2022/05/11 04:52:18;;;;;;;20.25;7.20;;;;;;;;;;5090880;28;20247;-68
2022/05/11 04:54:48;;;;;;;15.88;6.30;;;;;;;;;;5091857;28;20397;-68
2022/05/11 04:57:14;;;;;;;20.95;7.53;;;;;;;;;;5105613;28;20523;-68
2022/05/11 04:59:40;;;;;;;17.27;7.50;;;;;;;;;;5098785;28;20105;-69
2022/05/11 05:02:07;;;;;;;11.55;6.70;;;;;;;;;;5103378;28;20554;-68
2022/05/11 05:04:34;;;;;;;13.55;6.70;;;;;;;;;;5091990;28;20500;-68
2022/05/11 05:07:00;;;;;;;16.35;6.57;;;;;;;;;;5100349;28;20075;-68
2022/05/11 05:09:26;;;;;;;11.77;7.53;;;;;;;;;;5099033;28;20038;-68
2022/05/11 05:11:53;;;;;;;14.25;6.95;;;;;;;;;;5088428;28;20501;-68
2022/05/11 05:14:19;;;;;;;12.95;6.25;;;;;;;;;;5093921;27;20387;-68
2022/05/11 05:16:45;;;;;;;27.02;7.13;;;;;;;;;;5100400;28;20039;-68
2022/05/11 05:19:11;;;;;;;13.68;6.68;;;;;;;;;;5101975;27;20075;-68
2022/05/11 05:21:38;;;;;;;21.05;6.57;;;;;;;;;;5110908;27;20035;-69
2022/05/11 05:24:04;;;;;;;16.40;7.13;;;;;;;;;;5085210;27;20039;-68
2022/05/11 05:26:30;;;;;;;13.70;6.03;;;;;;;;;;5094587;27;20131;-68
2022/05/11 05:31:41;;;;;;;13.77;6.38;;;;;;;;;;5099465;27;20126;-68
2022/05/11 05:34:07;;;;;;;14.30;5.95;;;;;;;;;;5093127;27;20058;-68
2022/05/11 05:36:36;;;;;;;19.35;6.63;;;;;;;;;;5100865;27;20047;-68
2022/05/11 05:39:03;;;;;;;15.63;7.00;;;;;;;;;;5102118;28;20047;-68
2022/05/11 05:41:29;;;;;;;19.90;6.75;;;;;;;;;;5110529;27;20066;-69
2022/05/11 05:43:56;;;;;;;14.80;5.20;;;;;;;;;;5108635;27;20448;-68
2022/05/11 05:46:22;;;;;;;12.35;6.05;;;;;;;;;;5110512;28;20040;-68
2022/05/11 05:48:49;;;;;;;15.65;5.57;;;;;;;;;;5100256;28;20097;-68
2022/05/11 05:51:16;;;;;;;21.15;6.28;;;;;;;;;;5112091;27;20054;-68
2022/05/11 05:53:42;;;;;;;14.77;6.25;;;;;;;;;;5115307;27;20588;-68
2022/05/11 05:56:10;;;;;;;12.60;5.50;;;;;;;;;;5110313;27;20115;-68
2022/05/11 05:58:36;;;;;;;15.98;6.40;;;;;;;;;;5102432;27;20042;-68
2022/05/11 06:01:03;;;;;;;11.75;6.43;;;;;;;;;;5110649;27;20429;-68
2022/05/11 06:03:30;;;;;;;24.25;6.30;;;;;;;;;;5108182;27;20474;-68
2022/05/11 06:05:56;;;;;;;17.48;5.88;;;;;;;;;;5110170;28;20036;-69
2022/05/11 06:08:23;;;;;;;14.70;6.93;;;;;;;;;;5109773;28;20111;-69
2022/05/11 06:10:49;;;;;;;13.80;5.95;;;;;;;;;;5110782;27;20048;-68
2022/05/11 06:13:17;;;;;;;14.60;5.57;;;;;;;;;;5117566;27;20074;-68
2022/05/11 06:15:43;;;;;;;15.38;5.88;;;;;;;;;;5103419;27;20039;-68
2022/05/11 06:18:10;;;;;;;18.95;5.97;;;;;;;;;;5104814;27;20489;-68
2022/05/11 06:20:37;;;;;;;13.65;5.88;;;;;;;;;;5107086;27;20520;-68
2022/05/11 06:23:04;;;;;;;18.25;5.95;;;;;;;;;;5116255;27;20544;-68
2022/05/11 06:25:31;;;;;;;18.27;5.93;;;;;;;;;;5102610;27;20158;-69
2022/05/11 06:28:00;;;;;;;15.57;5.13;;;;;;;;;;5112260;27;20042;-69
2022/05/11 06:30:27;;;;;;;15.52;5.25;;;;;;;;;;5102699;27;20050;-68
2022/05/11 06:32:54;;;;;;;10.30;4.53;;;;;;;;;;5104256;28;20079;-68
2022/05/11 06:35:21;;;;;;;12.27;6.20;;;;;;;;;;5109563;27;20035;-68
2022/05/11 06:37:47;;;;;;;11.98;5.05;;;;;;;;;;5106208;28;20036;-68
2022/05/11 06:40:14;;;;;;;12.52;4.85;;;;;;;;;;5112386;27;20509;-68
2022/05/11 06:42:41;;;;;;;11.20;4.78;;;;;;;;;;5103888;27;20038;-68
2022/05/11 06:45:08;;;;;;;14.88;5.57;;;;;;;;;;5105670;27;20177;-68
2022/05/11 06:47:35;;;;;;;10.70;4.65;;;;;;;;;;5111462;27;20101;-68
2022/05/11 06:50:02;;;;;;;19.15;5.40;;;;;;;;;;5104083;27;20546;-68
2022/05/11 06:52:28;;;;;;;18.15;5.53;;;;;;;;;;5116232;27;20043;-67
2022/05/11 07:00:29;;;;;;;12.75;5.32;;;;;;;;;;5094402;28;20055;-68
2022/05/11 07:02:55;;;;;;;15.48;4.45;;;;;;;;;;5110329;28;20401;-68
2022/05/11 07:05:22;;;;;;;15.57;5.55;;;;;;;;;;5108213;28;20546;-68
2022/05/11 07:07:48;;;;;;;18.23;6.05;;;;;;;;;;5112179;27;20031;-68
2022/05/11 07:10:16;;;;;;;14.93;5.05;;;;;;;;;;5116735;27;20050;-68
2022/05/11 07:12:48;;;;;;;14.80;5.55;;;;;;;;;;5112931;27;20389;-68
2022/05/11 07:15:15;;;;;;;12.30;4.60;;;;;;;;;;5110365;27;20437;-68
2022/05/11 07:17:43;;;;;;;12.63;4.13;;;;;;;;;;5091815;28;20555;-68
2022/05/11 07:20:20;;;;;;;17.65;6.13;;;;;;;;;;5105957;28;20039;-68
2022/05/11 07:22:47;;;;;;;19.33;6.53;;;;;;;;;;5108246;28;20074;-69
2022/05/11 07:25:15;;;;;;;14.63;5.82;;;;;;;;;;5107977;28;20050;-69
2022/05/11 07:27:42;;;;;;;12.32;4.72;;;;;;;;;;5110436;28;20038;-69
2022/05/11 07:30:10;;;;;;;17.20;6.30;;;;;;;;;;5109181;28;20115;-69
2022/05/11 07:32:36;;;;;;;12.50;5.20;;;;;;;;;;5113016;27;20469;-68
2022/05/11 07:35:03;;;;;;;18.10;5.63;;;;;;;;;;5108630;28;20080;-68
2022/05/11 07:37:29;;;;;;;11.45;6.25;;;;;;;;;;5100569;27;20040;-69
2022/05/11 07:39:56;;;;;;;16.52;4.97;;;;;;;;;;5115298;27;20073;-69
2022/05/11 07:42:23;;;;;;;20.45;6.80;;;;;;;;;;5107415;27;20142;-69
2022/05/11 07:44:50;;;;;;;11.50;4.65;;;;;;;;;;5112250;27;20193;-69
2022/05/11 07:47:17;;;;;;;16.08;6.00;;;;;;;;;;5112111;27;20075;-69
2022/05/11 07:49:43;;;;;;;14.50;5.50;;;;;;;;;;5114383;27;20043;-68
2022/05/11 07:52:09;;;;;;;22.73;6.55;;;;;;;;;;5111580;27;20043;-68
2022/05/11 07:54:35;;;;;;;19.85;5.30;;;;;;;;;;5108037;28;20044;-69
2022/05/11 07:59:52;;;;;;;16.95;6.22;;;;;;;;;;5113169;27;20508;-69
2022/05/11 08:02:19;;;;;;;18.92;6.28;;;;;;;;;;5107716;28;20401;-69
2022/05/11 08:04:45;;;;;;;14.02;5.43;;;;;;;;;;5107237;28;20549;-69
2022/05/11 08:07:15;;;;;;;18.48;5.97;;;;;;;;;;5107095;28;20497;-68
2022/05/11 08:09:42;;;;;;;14.15;6.57;;;;;;;;;;5100076;27;20075;-69
2022/05/11 08:12:09;;;;;;;17.40;7.45;;;;;;;;;;5113239;27;20047;-69
2022/05/11 08:14:35;;;;;;;13.75;5.78;;;;;;;;;;5112140;27;20035;-69
2022/05/11 08:17:01;;;;;;;18.52;5.65;;;;;;;;;;5107281;27;20583;-69
2022/05/11 08:19:28;;;;;;;16.13;5.63;;;;;;;;;;5107213;28;20055;-69
2022/05/11 08:21:57;;;;;;;12.93;5.50;;;;;;;;;;5103718;28;20044;-69
2022/05/11 08:24:23;;;;;;;12.75;5.45;;;;;;;;;;5106364;27;20047;-69
2022/05/11 08:26:51;;;;;;;14.40;4.65;;;;;;;;;;5114038;27;20044;-69
2022/05/11 08:34:49;;;;;;;15.45;5.80;;;;;;;;;;5114785;27;20330;-70
2022/05/11 08:37:16;;;;;;;14.32;5.75;;;;;;;;;;5111838;28;20040;-69
2022/05/11 08:39:43;;;;;;;9.88;5.50;;;;;;;;;;5111448;28;20051;-68
2022/05/11 08:42:11;;;;;;;13.63;6.00;;;;;;;;;;5108722;28;20047;-69
2022/05/11 08:44:41;;;;;;;14.63;5.40;;;;;;;;;;5108724;28;20052;-69
2022/05/11 08:47:08;;;;;;;15.45;4.88;;;;;;;;;;5100401;27;20074;-69
2022/05/11 08:49:46;;;;;;;15.35;6.05;;;;;;;;;;5110243;28;20039;-69
2022/05/11 08:52:18;;;;;;;11.93;4.15;;;;;;;;;;5094239;28;20115;-69
2022/05/11 08:54:45;;;;;;;15.02;5.68;;;;;;;;;;5110366;28;20040;-69
2022/05/11 08:57:20;;;;;;;14.23;5.18;;;;;;;;;;5108722;28;20047;-69
2022/05/11 08:59:46;;;;;;;11.30;5.05;;;;;;;;;;5111059;27;20036;-68
2022/05/11 09:02:35;;;;;;;12.32;6.28;;;;;;;;;;5112342;28;20122;-69
2022/05/11 09:05:02;;;;;;;17.42;6.57;;;;;;;;;;5103239;27;20127;-69
2022/05/11 09:07:32;;;;;;;11.57;5.03;;;;;;;;;;5112317;28;20103;-69
2022/05/11 09:09:58;;;;;;;21.85;5.22;;;;;;;;;;5112835;27;20028;-69
2022/05/11 09:12:24;;;;;;;13.65;4.97;;;;;;;;;;5087851;28;20046;-69
2022/05/11 09:14:57;;;;;;;11.65;4.45;;;;;;;;;;5114403;27;20138;-69
2022/05/11 09:17:23;;;;;;;11.85;4.05;;;;;;;;;;5110359;27;20043;-69
2022/05/11 09:20:07;;;;;;;16.58;6.15;;;;;;;;;;5113566;27;20032;-69
2022/05/11 09:22:34;;;;;;;10.55;3.97;;;;;;;;;;5103769;27;20544;-69
2022/05/11 09:25:03;;;;;;;7.60;3.97;;;;;;;;;;5114634;27;20126;-69
2022/05/11 09:27:36;;;;;;;18.35;5.05;;;;;;;;;;5113479;27;20111;-69
2022/05/11 09:30:15;;;;;;;14.07;3.97;;;;;;;;;;5110937;28;20043;-69
2022/05/11 09:32:44;;;;;;;10.50;4.00;;;;;;;;;;5107138;28;20042;-69
2022/05/11 09:35:20;;;;;;;11.02;4.50;;;;;;;;;;5105464;28;20618;-69
2022/05/11 09:37:55;;;;;;;9.93;4.43;;;;;;;;;;5096339;27;20047;-69
2022/05/11 09:40:21;;;;;;;9.73;4.35;;;;;;;;;;5109232;27;20114;-69
2022/05/11 09:42:53;;;;;;;8.52;2.97;;;;;;;;;;5104180;27;21340;-69
2022/05/11 09:45:40;;;;;;;9.85;3.53;;;;;;;;;;5107724;27;20043;-69
2022/05/11 09:48:23;;;;;;;7.93;3.30;;;;;;;;;;5106374;27;20424;-69
2022/05/11 09:50:54;;;;;;;14.00;4.15;;;;;;;;;;5105290;27;20140;-69
2022/05/11 09:53:27;;;;;;;9.75;3.42;;;;;;;;;;5105729;27;20126;-68
2022/05/11 09:55:53;;;;;;;14.13;3.40;;;;;;;;;;5106749;27;20070;-69
2022/05/11 09:58:28;;;;;;;7.47;2.90;;;;;;;;;;5112346;27;20043;-69
2022/05/11 10:01:06;;;;;;;7.35;2.60;;;;;;;;;;5104414;28;20051;-69
2022/05/11 10:03:32;;;;;;;12.88;3.85;;;;;;;;;;5106596;27;20031;-69
2022/05/11 10:05:59;;;;;;;7.38;2.70;;;;;;;;;;5098604;27;20027;-68
2022/05/11 10:08:36;;;;;;;7.45;3.03;;;;;;;;;;5111093;27;20110;-69
2022/05/11 10:11:18;;;;;;;4.68;2.40;;;;;;;;;;5092744;27;20075;-69
2022/05/11 10:13:50;;;;;;;8.32;3.30;;;;;;;;;;5111327;27;20040;-68
2022/05/11 10:22:00;;;;;;;7.72;2.20;;;;;;;;;;5106061;27;20044;-68
2022/05/11 10:24:26;;;;;;;9.77;2.75;;;;;;;;;;5101881;28;20847;-68
2022/05/11 10:26:52;;;;;;;6.25;2.53;;;;;;;;;;5117593;27;20093;-69
2022/05/11 10:29:42;;;;;;;9.50;2.88;;;;;;;;;;5104356;27;20043;-68
2022/05/11 10:32:18;;;;;;;11.98;3.33;;;;;;;;;;5092895;28;20241;-69
2022/05/11 10:34:50;;;;;;;7.40;2.92;;;;;;;;;;5108461;27;20122;-69
2022/05/11 10:37:17;;;;;;;5.93;2.22;;;;;;;;;;5083298;28;20481;-68
2022/05/11 10:39:53;;;;;;;6.32;2.47;;;;;;;;;;5104255;27;20084;-68
2022/05/11 10:42:31;;;;;;;9.77;4.05;;;;;;;;;;5100703;27;20083;-69
2022/05/11 10:45:15;;;;;;;9.00;3.92;;;;;;;;;;5106489;27;20564;-69
2022/05/11 10:47:51;;;;;;;5.30;2.75;;;;;;;;;;5110662;28;20051;-69
2022/05/11 10:50:28;;;;;;;7.45;2.67;;;;;;;;;;5105604;27;20035;-69
2022/05/11 10:53:13;;;;;;;7.18;2.67;;;;;;;;;;5099141;27;20042;-69
2022/05/11 10:55:58;;;;;;;13.20;4.97;;;;;;;;;;5090177;28;20043;-69
2022/05/11 10:58:31;;;;;;;8.07;3.42;;;;;;;;;;5109053;27;20047;-68
2022/05/11 11:00:57;;;;;;;;;;;;;;;;;;5104387;28;20516;-69
2022/05/11 11:03:31;;;;;;;15.40;4.47;;;;;;;;;;5111921;27;19923;-69
2022/05/11 11:09:22;;;;;;;12.23;3.90;;;;;;;;;;5102138;27;20075;-69
2022/05/11 11:12:13;;;;;;;11.80;3.92;;;;;;;;;;5102760;27;20071;-68
2022/05/11 11:14:41;;;;;;;15.75;5.65;;;;;;;;;;5064812;28;20047;-69
2022/05/11 11:17:09;;;;;;;16.52;4.68;;;;;;;;;;5099994;27;20039;-69
2022/05/11 11:19:35;;;;;;;9.95;3.88;;;;;;;;;;5104912;27;20050;-68
2022/05/11 11:22:03;;;;;;;11.15;4.75;;;;;;;;;;5107002;27;20375;-69
2022/05/11 11:24:30;;;;;;;8.77;3.60;;;;;;;;;;5112652;27;20262;-69
2022/05/11 11:27:08;;;;;;;16.10;4.78;;;;;;;;;;5112541;27;20036;-69
2022/05/11 11:29:36;;;;;;;11.00;4.78;;;;;;;;;;5113700;27;20161;-69
2022/05/11 11:32:11;;;;;;;10.55;3.97;;;;;;;;;;5109570;27;20047;-68
2022/05/11 11:34:48;;;;;;;9.93;3.97;;;;;;;;;;5102031;27;20297;-69
2022/05/11 11:37:33;;;;;;;9.63;4.13;;;;;;;;;;5112182;27;20078;-69
2022/05/11 11:39:59;;;;;;;12.70;4.75;;;;;;;;;;5107165;28;20131;-69
2022/05/11 11:42:38;;;;;;;9.52;4.15;;;;;;;;;;5110466;27;20044;-69
2022/05/11 11:45:10;;;;;;;18.80;5.40;;;;;;;;;;5108417;28;20130;-68
2022/05/11 11:47:40;;;;;;;9.25;3.85;;;;;;;;;;5104650;28;20374;-69
2022/05/11 11:50:10;;;;;;;15.30;5.00;;;;;;;;;;5112437;27;20086;-69
2022/05/11 11:52:36;;;;;;;12.73;4.45;;;;;;;;;;5093745;28;20583;-69
2022/05/11 11:55:06;;;;;;;12.50;5.03;;;;;;;;;;5110600;27;20443;-69
2022/05/11 11:57:32;;;;;;;14.95;5.57;;;;;;;;;;5112881;27;20047;-70
2022/05/11 12:00:00;;;;;;;18.48;5.07;;;;;;;;;;5113040;27;20262;-69
2022/05/11 12:02:29;;;;;;;10.88;4.55;;;;;;;;;;5107858;28;20043;-69
2022/05/11 12:04:58;;;;;;;13.00;5.90;;;;;;;;;;5077134;27;20040;-69
2022/05/11 12:15:58;;;;;;;13.68;5.60;;;;;;;;;;5101450;27;20074;-69
2022/05/11 12:18:31;;;;;;;12.80;5.75;;;;;;;;;;5111581;27;20476;-69
2022/05/11 12:20:57;;;;;;;18.17;5.82;;;;;;;;;;5107942;27;20039;-68
2022/05/11 12:23:26;;;;;;;16.60;6.07;;;;;;;;;;5097572;27;20574;-69
2022/05/11 12:25:55;;;;;;;12.35;4.43;;;;;;;;;;5111871;28;20751;-69
2022/05/11 12:28:23;;;;;;;21.30;5.13;;;;;;;;;;5110194;28;20047;-68
2022/05/11 12:30:50;;;;;;;11.25;4.20;;;;;;;;;;5107792;27;20242;-69
2022/05/11 12:33:24;;;;;;;9.75;3.78;;;;;;;;;;5101179;28;20046;-69
2022/05/11 12:35:50;;;;;;;11.57;4.65;;;;;;;;;;5106711;28;20413;-69
2022/05/11 12:38:26;;;;;;;11.95;3.88;;;;;;;;;;5103612;28;20077;-69
2022/05/11 12:40:53;;;;;;;8.95;5.07;;;;;;;;;;5102068;28;20048;-68
2022/05/11 12:43:33;;;;;;;10.05;3.78;;;;;;;;;;5100637;28;20480;-68
2022/05/11 12:46:01;;;;;;;11.48;3.85;;;;;;;;;;5102025;28;20538;-69
2022/05/11 12:48:32;;;;;;;11.27;4.32;;;;;;;;;;5104698;28;20078;-69
2022/05/11 12:51:01;;;;;;;12.60;5.03;;;;;;;;;;5098898;28;20039;-69
2022/05/11 12:53:31;;;;;;;13.23;6.00;;;;;;;;;;5105296;28;20093;-69
2022/05/11 12:56:31;;;;;;;11.85;5.75;;;;;;;;;;5103550;28;20050;-69
2022/05/11 12:58:59;;;;;;;14.02;4.68;;;;;;;;;;5084739;28;20055;-69
2022/05/11 13:01:27;;;;;;;17.27;4.63;;;;;;;;;;5103965;28;20055;-69
2022/05/11 13:03:55;;;;;;;13.02;5.22;;;;;;;;;;5103630;28;20419;-68
2022/05/11 13:06:39;;;;;;;11.80;5.45;;;;;;;;;;5103975;28;20058;-69
2022/05/11 13:09:14;;;;;;;10.93;5.45;;;;;;;;;;5104945;28;20520;-69
2022/05/11 13:11:40;;;;;;;11.70;5.35;;;;;;;;;;5108753;28;20050;-69
2022/05/11 13:14:15;;;;;;;14.60;6.30;;;;;;;;;;5105135;28;20047;-68
2022/05/11 13:16:46;;;;;;;16.20;5.60;;;;;;;;;;5104864;28;20400;-69
2022/05/11 13:19:25;;;;;;;9.93;5.22;;;;;;;;;;5103615;28;20416;-69
2022/05/11 13:21:53;;;;;;;14.98;5.55;;;;;;;;;;5103879;28;20144;-69
2022/05/11 13:24:38;;;;;;;11.82;5.85;;;;;;;;;;5105593;28;20520;-69
2022/05/11 13:27:24;;;;;;;12.40;4.78;;;;;;;;;;5104461;28;20040;-68
2022/05/11 13:30:01;;;;;;;9.55;4.25;;;;;;;;;;5102060;28;20493;-68
2022/05/11 13:32:27;;;;;;;14.02;5.28;;;;;;;;;;5104151;28;20039;-69
2022/05/11 13:35:13;;;;;;;15.70;5.53;;;;;;;;;;5105659;28;20488;-69
2022/05/11 13:37:39;;;;;;;10.70;4.82;;;;;;;;;;5108262;27;20047;-70
2022/05/11 13:40:06;;;;;;;14.40;5.82;;;;;;;;;;5108103;27;20039;-69
2022/05/11 13:42:32;;;;;;;16.25;4.72;;;;;;;;;;5109508;27;20503;-69
2022/05/11 13:45:04;;;;;;;11.27;4.53;;;;;;;;;;5102766;28;20056;-69
2022/05/11 13:50:17;;;;;;;14.30;4.63;;;;;;;;;;5106847;27;20554;-69
2022/05/11 13:52:52;;;;;;;11.35;3.83;;;;;;;;;;5111241;27;20039;-69
2022/05/11 13:55:32;;;;;;;13.27;4.65;;;;;;;;;;5109773;27;20035;-69
2022/05/11 13:58:18;;;;;;;16.23;5.13;;;;;;;;;;5104944;27;20032;-69
2022/05/11 14:00:44;;;;;;;20.38;3.85;;;;;;;;;;5095870;28;20154;-69
2022/05/11 14:03:14;;;;;;;13.20;3.70;;;;;;;;;;5097937;27;20147;-69
2022/05/11 14:05:40;;;;;;;12.68;4.28;;;;;;;;;;5105827;27;20038;-69
2022/05/11 14:08:07;;;;;;;8.98;3.70;;;;;;;;;;5098776;27;20032;-69
2022/05/11 14:10:33;;;;;;;6.20;3.08;;;;;;;;;;5092834;28;20040;-69
2022/05/11 14:12:59;;;;;;;7.50;3.63;;;;;;;;;;5096781;27;20035;-69
2022/05/11 14:15:26;;;;;;;8.98;3.38;;;;;;;;;;5091933;28;20512;-69
2022/05/11 14:17:52;;;;;;;9.70;3.22;;;;;;;;;;5093403;27;20397;-69
2022/05/11 14:20:23;;;;;;;6.80;2.63;;;;;;;;;;5091729;27;20051;-69
2022/05/11 14:22:49;;;;;;;7.50;2.30;;;;;;;;;;5096057;27;20092;-69
2022/05/11 14:25:16;;;;;;;6.32;2.38;;;;;;;;;;5094737;28;20031;-69
2022/05/11 14:27:43;;;;;;;8.52;2.80;;;;;;;;;;5093733;27;20079;-69
2022/05/11 14:30:09;;;;;;;5.90;3.65;;;;;;;;;;5092558;28;20734;-69
2022/05/11 14:32:46;;;;;;;9.82;2.78;;;;;;;;;;5093508;27;20043;-68
2022/05/11 14:35:15;;;;;;;8.18;2.72;;;;;;;;;;5073528;28;20050;-69
2022/05/11 14:37:42;;;;;;;13.30;4.38;;;;;;;;;;5096923;27;20044;-69
2022/05/11 14:40:09;;;;;;;7.57;2.67;;;;;;;;;;5092652;27;20401;-69
2022/05/11 14:42:36;;;;;;;10.32;3.50;;;;;;;;;;5095558;27;20419;-69
2022/05/11 14:45:02;;;;;;;5.95;2.00;;;;;;;;;;5096399;28;20059;-69
2022/05/11 14:47:29;;;;;;;7.20;2.50;;;;;;;;;;5105980;28;20052;-68
2022/05/11 14:49:55;;;;;;;7.18;2.17;;;;;;;;;;5106253;28;20040;-69
2022/05/11 14:52:22;;;;;;;8.73;2.42;;;;;;;;;;5107102;27;20050;-69
2022/05/11 14:54:48;;;;;;;8.57;2.45;;;;;;;;;;5100764;28;20066;-68
2022/05/11 15:02:44;;;;;;;6.22;2.63;;;;;;;;;;5104452;28;20685;-69
2022/05/11 15:05:12;;;;;;;7.65;1.90;;;;;;;;;;5100897;28;20042;-69
2022/05/11 15:07:38;;;;;;;4.53;2.20;;;;;;;;;;5103664;27;20195;-70
2022/05/11 15:10:05;;;;;;;9.95;2.17;;;;;;;;;;5096145;27;20043;-69
2022/05/11 15:15:16;;;;;;;4.47;1.75;;;;;;;;;;5090319;28;20040;-69
2022/05/11 15:17:42;;;;;;;4.68;2.30;;;;;;;;;;5094869;27;20484;-68
2022/05/11 15:20:10;;;;;;;8.93;2.20;;;;;;;;;;5098577;27;20412;-69
2022/05/11 15:22:36;;;;;;;5.72;2.20;;;;;;;;;;5075124;28;20032;-69
2022/05/11 15:25:03;;;;;;;10.13;2.72;;;;;;;;;;5090411;28;20608;-69
2022/05/11 15:27:29;;;;;;;7.88;2.85;;;;;;;;;;5097943;27;20082;-68
2022/05/11 15:29:55;;;;;;;4.80;2.20;;;;;;;;;;5075748;28;20524;-69
2022/05/11 15:32:25;;;;;;;6.13;2.97;;;;;;;;;;5092412;28;20106;-68
2022/05/11 15:34:52;;;;;;;7.15;2.80;;;;;;;;;;5088390;28;20082;-69
2022/05/11 15:37:18;;;;;;;8.60;2.75;;;;;;;;;;5093683;27;20044;-68